TimeCDT,TemperatureF,Dew PointF,Humidity,Sea Level PressureIn,VisibilityMPH,Wind Direction,Wind SpeedMPH,Gust SpeedMPH,PrecipitationIn,Events,Conditions,WindDirDegrees,DateUTC
12:58 AM,70.9,54.1,55,29.95,10.0,South,4.6,-,N/A,,Clear,170,2013-09-12 05:58:00
1:58 AM,71.1,55.6,58,29.95,10.0,South,2.3,-,N/A,,Clear,190,2013-09-12 06:58:00
2:58 AM,69.6,55.2,60,29.95,10.0,South,3.5,-,N/A,,Clear,190,2013-09-12 07:58:00
3:58 AM,68.7,55.4,62,29.94,10.0,South,2.3,-,N/A,,Clear,170,2013-09-12 08:58:00
4:58 AM,65.8,55.6,69,29.95,10.0,South,4.6,-,N/A,,Clear,170,2013-09-12 09:58:00
5:58 AM,66.4,55.9,69,29.95,10.0,Calm,Calm,-,N/A,,Clear,0,2013-09-12 10:58:00
6:58 AM,66.2,57.2,73,29.96,10.0,Calm,Calm,-,N/A,,Clear,0,2013-09-12 11:58:00
7:58 AM,67.8,59.2,74,29.99,10.0,Calm,Calm,-,N/A,,Clear,0,2013-09-12 12:58:00
8:58 AM,73.9,63.3,69,29.99,10.0,Calm,Calm,-,N/A,,Clear,0,2013-09-12 13:58:00
9:58 AM,79.9,66.0,62,30.01,10.0,Calm,Calm,-,N/A,,Clear,0,2013-09-12 14:58:00
10:58 AM,84.0,64.2,51,29.99,10.0,SSE,10.4,-,N/A,,Clear,150,2013-09-12 15:58:00
11:58 AM,87.8,61.0,40,30.00,10.0,SE,10.4,17.3,N/A,,Partly Cloudy,130,2013-09-12 16:58:00
12:58 PM,87.4,62.1,42,29.98,10.0,SSE,5.8,-,N/A,,Mostly Cloudy,160,2013-09-12 17:58:00
1:58 PM,91.6,60.6,35,29.94,10.0,SE,9.2,18.4,N/A,,Partly Cloudy,130,2013-09-12 18:58:00
2:58 PM,91.9,59.4,33,29.91,10.0,SE,10.4,-,N/A,,Partly Cloudy,130,2013-09-12 19:58:00
3:58 PM,91.8,59.5,34,29.88,10.0,East,8.1,17.3,N/A,,Partly Cloudy,90,2013-09-12 20:58:00
4:58 PM,92.5,59.9,33,29.86,10.0,East,12.7,18.4,N/A,,Mostly Cloudy,100,2013-09-12 21:58:00
5:30 PM,91.4,62.6,38,29.99,10.0,SE,12.7,-,N/A,,Partly Cloudy,140,2013-09-12 22:30:00
5:58 PM,91.2,59.2,34,29.86,10.0,ESE,15.0,-,N/A,,Clear,120,2013-09-12 22:58:00
6:58 PM,90.1,61.0,37,29.86,10.0,ENE,15.0,-,N/A,,Scattered Clouds,60,2013-09-12 23:58:00
7:58 PM,85.6,62.2,45,29.89,10.0,SE,10.4,-,N/A,,Mostly Cloudy,140,2013-09-13 00:58:00
8:58 PM,84.6,62.1,47,29.89,10.0,Variable,3.5,-,N/A,,Overcast,0,2013-09-13 01:58:00
9:58 PM,83.3,61.9,48,29.90,10.0,East,4.6,-,N/A,,Overcast,100,2013-09-13 02:58:00
10:58 PM,81.0,62.8,54,29.89,10.0,ESE,4.6,-,N/A,,Mostly Cloudy,110,2013-09-13 03:58:00
11:58 PM,77.2,62.6,61,29.89,10.0,SE,4.6,-,N/A,,Scattered Clouds,130,2013-09-13 04:58:00